sensor_id;sensor_type;location;lat;lon;timestamp;pressure;altitude;pressure_sealevel;temperature;humidity
24031;BME280;12240;51.142;22.486;2023-03-14T00:01:21;98117.03;;;7.19;100.00
24031;BME280;12240;51.142;22.486;2023-03-14T00:03:50;98112.69;;;7.09;100.00
24031;BME280;12240;51.142;22.486;2023-03-14T00:06:19;98110.72;;;7.12;100.00
24031;BME280;12240;51.142;22.486;2023-03-14T00:08:48;98115.50;;;7.08;100.00
24031;BME280;12240;51.142;22.486;2023-03-14T00:11:20;98068.75;;;6.75;100.00
24031;BME280;12240;51.142;22.486;2023-03-14T00:13:51;98102.75;;;7.03;100.00
24031;BME280;12240;51.142;22.486;2023-03-14T00:16:20;98103.59;;;7.04;100.00
24031;BME280;12240;51.142;22.486;2023-03-14T00:18:48;98055.34;;;6.68;100.00
24031;BME280;12240;51.142;22.486;2023-03-14T00:21:17;98103.56;;;6.96;100.00
24031;BME280;12240;51.142;22.486;2023-03-14T00:23:45;98056.03;;;6.70;100.00
24031;BME280;12240;51.142;22.486;2023-03-14T00:26:17;98041.94;;;6.62;100.00
24031;BME280;12240;51.142;22.486;2023-03-14T00:28:46;98085.81;;;6.80;100.00
24031;BME280;12240;51.142;22.486;2023-03-14T00:31:17;98084.63;;;6.75;100.00
24031;BME280;12240;51.142;22.486;2023-03-14T00:33:46;98032.34;;;6.61;100.00
24031;BME280;12240;51.142;22.486;2023-03-14T00:36:18;98036.41;;;6.47;100.00
24031;BME280;12240;51.142;22.486;2023-03-14T00:38:50;98075.56;;;6.77;100.00
24031;BME280;12240;51.142;22.486;2023-03-14T00:41:21;98045.09;;;6.65;100.00
24031;BME280;12240;51.142;22.486;2023-03-14T00:43:51;98080.38;;;6.90;100.00
24031;BME280;12240;51.142;22.486;2023-03-14T00:46:20;98070.97;;;6.95;100.00
24031;BME280;12240;51.142;22.486;2023-03-14T00:48:48;98009.56;;;6.68;100.00
24031;BME280;12240;51.142;22.486;2023-03-14T00:51:17;98052.78;;;6.92;100.00
24031;BME280;12240;51.142;22.486;2023-03-14T00:53:45;98055.44;;;7.00;100.00
24031;BME280;12240;51.142;22.486;2023-03-14T00:56:14;98049.31;;;7.00;100.00
24031;BME280;12240;51.142;22.486;2023-03-14T00:58:42;98050.66;;;7.04;100.00
24031;BME280;12240;51.142;22.486;2023-03-14T01:01:18;98044.22;;;7.06;100.00
24031;BME280;12240;51.142;22.486;2023-03-14T01:03:46;98016.06;;;6.89;100.00
24031;BME280;12240;51.142;22.486;2023-03-14T01:06:19;98024.53;;;7.01;100.00
24031;BME280;12240;51.142;22.486;2023-03-14T01:08:49;98017.09;;;6.96;100.00
24031;BME280;12240;51.142;22.486;2023-03-14T01:11:26;98003.84;;;6.96;100.00
24031;BME280;12240;51.142;22.486;2023-03-14T01:13:55;98018.38;;;7.00;100.00
24031;BME280;12240;51.142;22.486;2023-03-14T01:16:27;98009.97;;;7.05;100.00
24031;BME280;12240;51.142;22.486;2023-03-14T01:18:55;97959.47;;;6.74;100.00
24031;BME280;12240;51.142;22.486;2023-03-14T01:21:30;97997.88;;;7.10;100.00
24031;BME280;12240;51.142;22.486;2023-03-14T01:24:00;97943.13;;;6.87;100.00
24031;BME280;12240;51.142;22.486;2023-03-14T01:26:32;97989.47;;;7.23;100.00
24031;BME280;12240;51.142;22.486;2023-03-14T01:29:02;97955.72;;;7.01;100.00
24031;BME280;12240;51.142;22.486;2023-03-14T01:31:34;97993.75;;;7.24;100.00
24031;BME280;12240;51.142;22.486;2023-03-14T01:34:02;97962.69;;;7.10;100.00
24031;BME280;12240;51.142;22.486;2023-03-14T01:36:30;97958.34;;;6.93;100.00
24031;BME280;12240;51.142;22.486;2023-03-14T01:39:02;97984.00;;;7.17;100.00
24031;BME280;12240;51.142;22.486;2023-03-14T01:41:31;97984.69;;;7.19;100.00
24031;BME280;12240;51.142;22.486;2023-03-14T01:44:00;97984.97;;;7.16;100.00
24031;BME280;12240;51.142;22.486;2023-03-14T01:54:47;97961.03;;;7.17;100.00
24031;BME280;12240;51.142;22.486;2023-03-14T01:57:30;97974.41;;;7.16;100.00
24031;BME280;12240;51.142;22.486;2023-03-14T02:00:09;97959.69;;;7.13;100.00
24031;BME280;12240;51.142;22.486;2023-03-14T02:02:50;97932.88;;;7.00;100.00
24031;BME280;12240;51.142;22.486;2023-03-14T02:05:23;97946.78;;;7.02;100.00
24031;BME280;12240;51.142;22.486;2023-03-14T02:08:11;97956.72;;;7.08;100.00
24031;BME280;12240;51.142;22.486;2023-03-14T02:10:52;97976.22;;;7.31;100.00
24031;BME280;12240;51.142;22.486;2023-03-14T02:13:43;97986.19;;;7.29;100.00
24031;BME280;12240;51.142;22.486;2023-03-14T02:16:23;97968.78;;;7.10;100.00
24031;BME280;12240;51.142;22.486;2023-03-14T02:19:03;97968.97;;;7.17;100.00
24031;BME280;12240;51.142;22.486;2023-03-14T02:22:02;97954.22;;;7.31;100.00
24031;BME280;12240;51.142;22.486;2023-03-14T02:27:45;97963.47;;;7.35;100.00
24031;BME280;12240;51.142;22.486;2023-03-14T02:30:22;97970.63;;;7.34;100.00
24031;BME280;12240;51.142;22.486;2023-03-14T02:32:56;97946.44;;;7.37;100.00
24031;BME280;12240;51.142;22.486;2023-03-14T02:35:34;97896.63;;;7.25;100.00
24031;BME280;12240;51.142;22.486;2023-03-14T02:41:25;97940.78;;;7.56;100.00
24031;BME280;12240;51.142;22.486;2023-03-14T02:44:01;97935.84;;;7.53;100.00
24031;BME280;12240;51.142;22.486;2023-03-14T02:46:30;97877.94;;;7.26;100.00
24031;BME280;12240;51.142;22.486;2023-03-14T02:49:05;97938.50;;;7.53;100.00
24031;BME280;12240;51.142;22.486;2023-03-14T02:51:38;97921.28;;;7.49;100.00
24031;BME280;12240;51.142;22.486;2023-03-14T02:54:08;97939.81;;;7.49;100.00
24031;BME280;12240;51.142;22.486;2023-03-14T02:56:36;97935.84;;;7.53;100.00
24031;BME280;12240;51.142;22.486;2023-03-14T02:59:07;97934.66;;;7.56;100.00
24031;BME280;12240;51.142;22.486;2023-03-14T03:02:04;97888.53;;;7.34;100.00
24031;BME280;12240;51.142;22.486;2023-03-14T03:04:33;97880.94;;;7.23;100.00
24031;BME280;12240;51.142;22.486;2023-03-14T03:07:01;97930.69;;;7.52;100.00
24031;BME280;12240;51.142;22.486;2023-03-14T03:09:29;97894.50;;;7.28;100.00
24031;BME280;12240;51.142;22.486;2023-03-14T03:11:57;97892.84;;;7.27;100.00
24031;BME280;12240;51.142;22.486;2023-03-14T03:14:28;97896.47;;;7.26;100.00
24031;BME280;12240;51.142;22.486;2023-03-14T03:17:02;97925.91;;;7.47;100.00
24031;BME280;12240;51.142;22.486;2023-03-14T03:19:31;97869.53;;;7.15;100.00
24031;BME280;12240;51.142;22.486;2023-03-14T03:21:59;97769.03;;;6.58;100.00
24031;BME280;12240;51.142;22.486;2023-03-14T03:24:30;97910.34;;;7.52;100.00
24031;BME280;12240;51.142;22.486;2023-03-14T03:26:58;97910.66;;;7.57;100.00
24031;BME280;12240;51.142;22.486;2023-03-14T03:29:26;97864.69;;;7.26;100.00
24031;BME280;12240;51.142;22.486;2023-03-14T03:31:55;97898.75;;;7.53;100.00
24031;BME280;12240;51.142;22.486;2023-03-14T03:34:23;97849.50;;;7.20;100.00
24031;BME280;12240;51.142;22.486;2023-03-14T03:36:56;97880.25;;;7.37;100.00
24031;BME280;12240;51.142;22.486;2023-03-14T03:39:26;97871.16;;;7.24;100.00
24031;BME280;12240;51.142;22.486;2023-03-14T03:41:54;97878.94;;;7.09;100.00
24031;BME280;12240;51.142;22.486;2023-03-14T03:44:23;97835.97;;;6.75;100.00
24031;BME280;12240;51.142;22.486;2023-03-14T03:46:52;97818.78;;;6.63;100.00
24031;BME280;12240;51.142;22.486;2023-03-14T03:49:20;97864.44;;;6.81;100.00
24031;BME280;12240;51.142;22.486;2023-03-14T03:51:48;97813.47;;;6.47;100.00
24031;BME280;12240;51.142;22.486;2023-03-14T03:54:16;97856.81;;;6.78;100.00
24031;BME280;12240;51.142;22.486;2023-03-14T03:56:44;97844.91;;;6.74;100.00
24031;BME280;12240;51.142;22.486;2023-03-14T03:59:12;97805.22;;;6.58;100.00
24031;BME280;12240;51.142;22.486;2023-03-14T04:01:40;97828.03;;;6.75;100.00
24031;BME280;12240;51.142;22.486;2023-03-14T04:04:08;97810.53;;;6.58;100.00
24031;BME280;12240;51.142;22.486;2023-03-14T04:06:37;97847.03;;;6.86;100.00
24031;BME280;12240;51.142;22.486;2023-03-14T04:09:06;97850.19;;;6.82;100.00
24031;BME280;12240;51.142;22.486;2023-03-14T04:11:41;97807.22;;;6.56;100.00
24031;BME280;12240;51.142;22.486;2023-03-14T04:14:22;97849.53;;;6.80;100.00
24031;BME280;12240;51.142;22.486;2023-03-14T04:17:13;97842.94;;;6.84;100.00
24031;BME280;12240;51.142;22.486;2023-03-14T04:19:41;97795.81;;;6.47;100.00
24031;BME280;12240;51.142;22.486;2023-03-14T04:22:10;97805.25;;;6.50;100.00
24031;BME280;12240;51.142;22.486;2023-03-14T04:24:47;97834.31;;;6.66;100.00
24031;BME280;12240;51.142;22.486;2023-03-14T04:27:15;97780.59;;;6.33;100.00
24031;BME280;12240;51.142;22.486;2023-03-14T04:29:45;97838.97;;;6.72;100.00
24031;BME280;12240;51.142;22.486;2023-03-14T04:32:16;97839.28;;;6.69;100.00
24031;BME280;12240;51.142;22.486;2023-03-14T04:34:45;97788.88;;;6.46;100.00
24031;BME280;12240;51.142;22.486;2023-03-14T04:37:13;97832.69;;;6.81;100.00
24031;BME280;12240;51.142;22.486;2023-03-14T04:39:44;97826.03;;;6.85;100.00
24031;BME280;12240;51.142;22.486;2023-03-14T04:42:17;97821.75;;;6.84;100.00
24031;BME280;12240;51.142;22.486;2023-03-14T04:44:46;97775.81;;;6.77;100.00
24031;BME280;12240;51.142;22.486;2023-03-14T04:47:19;97819.41;;;6.97;100.00
24031;BME280;12240;51.142;22.486;2023-03-14T04:49:49;97760.59;;;6.63;100.00
24031;BME280;12240;51.142;22.486;2023-03-14T04:52:17;97810.00;;;7.02;100.00
24031;BME280;12240;51.142;22.486;2023-03-14T04:54:46;97778.59;;;6.67;100.00
24031;BME280;12240;51.142;22.486;2023-03-14T04:57:14;97811.00;;;6.93;100.00
24031;BME280;12240;51.142;22.486;2023-03-14T04:59:43;97773.00;;;6.62;100.00
24031;BME280;12240;51.142;22.486;2023-03-14T05:02:46;97817.78;;;6.80;100.00
24031;BME280;12240;51.142;22.486;2023-03-14T05:05:40;97775.31;;;6.49;100.00
24031;BME280;12240;51.142;22.486;2023-03-14T05:08:15;97801.91;;;6.64;100.00
24031;BME280;12240;51.142;22.486;2023-03-14T05:11:16;97806.41;;;6.63;100.00
24031;BME280;12240;51.142;22.486;2023-03-14T05:14:03;97767.56;;;6.48;100.00
24031;BME280;12240;51.142;22.486;2023-03-14T05:16:54;97804.41;;;6.73;100.00
24031;BME280;12240;51.142;22.486;2023-03-14T05:19:38;97799.94;;;6.74;100.00
24031;BME280;12240;51.142;22.486;2023-03-14T05:22:06;97742.78;;;6.41;100.00
24031;BME280;12240;51.142;22.486;2023-03-14T05:24:55;97748.72;;;6.43;100.00
24031;BME280;12240;51.142;22.486;2023-03-14T05:27:42;97791.34;;;6.64;100.00
24031;BME280;12240;51.142;22.486;2023-03-14T05:30:31;97738.50;;;6.40;100.00
24031;BME280;12240;51.142;22.486;2023-03-14T05:33:23;97786.06;;;6.72;100.00
24031;BME280;12240;51.142;22.486;2023-03-14T05:36:05;97735.78;;;6.64;100.00
24031;BME280;12240;51.142;22.486;2023-03-14T05:38:42;97733.75;;;6.98;100.00
24031;BME280;12240;51.142;22.486;2023-03-14T05:41:28;97757.03;;;7.19;100.00
24031;BME280;12240;51.142;22.486;2023-03-14T05:44:14;97753.19;;;7.29;100.00
24031;BME280;12240;51.142;22.486;2023-03-14T05:46:56;97737.63;;;7.26;100.00
24031;BME280;12240;51.142;22.486;2023-03-14T05:49:24;97730.88;;;7.16;100.00
24031;BME280;12240;51.142;22.486;2023-03-14T05:52:17;97725.44;;;7.09;100.00
24031;BME280;12240;51.142;22.486;2023-03-14T05:55:00;97699.03;;;7.01;100.00
24031;BME280;12240;51.142;22.486;2023-03-14T05:57:48;97727.03;;;7.34;100.00
24031;BME280;12240;51.142;22.486;2023-03-14T06:00:24;97687.53;;;7.17;100.00
24031;BME280;12240;51.142;22.486;2023-03-14T06:03:05;97678.34;;;7.35;100.00
24031;BME280;12240;51.142;22.486;2023-03-14T06:05:38;97731.91;;;7.76;100.00
24031;BME280;12240;51.142;22.486;2023-03-14T06:08:07;97728.31;;;7.99;100.00
24031;BME280;12240;51.142;22.486;2023-03-14T06:10:36;97716.34;;;8.03;100.00
24031;BME280;12240;51.142;22.486;2023-03-14T06:13:05;97724.94;;;8.05;100.00
24031;BME280;12240;51.142;22.486;2023-03-14T06:15:34;97729.84;;;8.16;100.00
24031;BME280;12240;51.142;22.486;2023-03-14T06:18:04;97730.19;;;8.13;100.00
24031;BME280;12240;51.142;22.486;2023-03-14T06:20:38;97742.31;;;8.39;100.00
24031;BME280;12240;51.142;22.486;2023-03-14T06:23:12;97703.34;;;8.39;100.00
24031;BME280;12240;51.142;22.486;2023-03-14T06:25:41;97717.66;;;8.53;100.00
24031;BME280;12240;51.142;22.486;2023-03-14T06:28:10;97718.53;;;8.45;100.00
24031;BME280;12240;51.142;22.486;2023-03-14T06:30:39;97709.75;;;8.45;100.00
24031;BME280;12240;51.142;22.486;2023-03-14T06:33:11;97721.84;;;8.47;100.00
24031;BME280;12240;51.142;22.486;2023-03-14T06:35:41;97707.59;;;8.63;100.00
24031;BME280;12240;51.142;22.486;2023-03-14T06:38:10;97661.91;;;8.38;100.00
24031;BME280;12240;51.142;22.486;2023-03-14T06:40:39;97707.78;;;8.76;100.00
24031;BME280;12240;51.142;22.486;2023-03-14T06:43:12;97704.34;;;8.90;100.00
24031;BME280;12240;51.142;22.486;2023-03-14T06:45:43;97689.34;;;9.11;100.00
24031;BME280;12240;51.142;22.486;2023-03-14T06:48:12;97622.88;;;8.76;100.00
24031;BME280;12240;51.142;22.486;2023-03-14T06:50:48;97677.88;;;9.11;100.00
24031;BME280;12240;51.142;22.486;2023-03-14T06:53:17;97646.41;;;9.08;100.00
24031;BME280;12240;51.142;22.486;2023-03-14T06:55:46;97626.03;;;9.15;100.00
24031;BME280;12240;51.142;22.486;2023-03-14T06:58:17;97660.28;;;9.24;100.00
24031;BME280;12240;51.142;22.486;2023-03-14T07:00:46;97656.16;;;9.36;100.00
24031;BME280;12240;51.142;22.486;2023-03-14T07:03:20;97648.22;;;9.58;100.00
24031;BME280;12240;51.142;22.486;2023-03-14T07:05:51;97648.22;;;9.79;100.00
24031;BME280;12240;51.142;22.486;2023-03-14T07:08:20;97603.16;;;9.71;100.00
24031;BME280;12240;51.142;22.486;2023-03-14T07:10:48;97589.53;;;10.01;100.00
24031;BME280;12240;51.142;22.486;2023-03-14T07:13:18;97591.91;;;10.11;100.00
24031;BME280;12240;51.142;22.486;2023-03-14T07:15:55;97623.50;;;10.48;100.00
24031;BME280;12240;51.142;22.486;2023-03-14T07:18:24;97620.78;;;10.69;100.00
24031;BME280;12240;51.142;22.486;2023-03-14T07:20:52;97606.09;;;10.80;100.00
24031;BME280;12240;51.142;22.486;2023-03-14T07:23:20;97625.19;;;10.90;100.00
24031;BME280;12240;51.142;22.486;2023-03-14T07:25:52;97615.72;;;10.81;100.00
24031;BME280;12240;51.142;22.486;2023-03-14T07:28:24;97605.44;;;11.12;100.00
24031;BME280;12240;51.142;22.486;2023-03-14T07:30:59;97610.75;;;11.05;100.00
24031;BME280;12240;51.142;22.486;2023-03-14T07:33:32;97545.41;;;10.69;100.00
24031;BME280;12240;51.142;22.486;2023-03-14T07:36:03;97602.38;;;11.15;100.00
24031;BME280;12240;51.142;22.486;2023-03-14T07:38:32;97584.81;;;10.80;100.00
24031;BME280;12240;51.142;22.486;2023-03-14T07:41:22;97610.94;;;11.04;100.00
24031;BME280;12240;51.142;22.486;2023-03-14T07:44:10;97604.19;;;11.08;100.00
24031;BME280;12240;51.142;22.486;2023-03-14T07:46:41;97594.38;;;11.15;100.00
24031;BME280;12240;51.142;22.486;2023-03-14T07:49:09;97548.72;;;11.18;100.00
24031;BME280;12240;51.142;22.486;2023-03-14T07:51:37;97606.28;;;11.73;100.00
24031;BME280;12240;51.142;22.486;2023-03-14T07:54:06;97602.78;;;11.72;100.00
24031;BME280;12240;51.142;22.486;2023-03-14T07:56:34;97585.59;;;11.88;100.00
24031;BME280;12240;51.142;22.486;2023-03-14T07:59:02;97584.38;;;12.10;100.00
24031;BME280;12240;51.142;22.486;2023-03-14T08:01:31;97570.19;;;11.96;100.00
24031;BME280;12240;51.142;22.486;2023-03-14T08:03:59;97587.22;;;12.21;100.00
24031;BME280;12240;51.142;22.486;2023-03-14T08:06:30;97587.03;;;12.36;100.00
24031;BME280;12240;51.142;22.486;2023-03-14T08:08:58;97581.69;;;12.36;100.00
24031;BME280;12240;51.142;22.486;2023-03-14T08:11:27;97539.63;;;12.31;100.00
24031;BME280;12240;51.142;22.486;2023-03-14T08:13:55;97538.75;;;12.44;100.00
24031;BME280;12240;51.142;22.486;2023-03-14T08:16:24;97577.94;;;12.76;100.00
24031;BME280;12240;51.142;22.486;2023-03-14T08:18:52;97582.69;;;12.67;100.00
24031;BME280;12240;51.142;22.486;2023-03-14T08:21:21;97536.75;;;12.33;100.00
24031;BME280;12240;51.142;22.486;2023-03-14T08:23:49;97537.50;;;12.53;100.00
24031;BME280;12240;51.142;22.486;2023-03-14T08:26:17;97564.09;;;12.92;100.00
24031;BME280;12240;51.142;22.486;2023-03-14T08:28:45;97562.22;;;13.12;100.00
24031;BME280;12240;51.142;22.486;2023-03-14T08:31:13;97530.59;;;13.03;100.00
24031;BME280;12240;51.142;22.486;2023-03-14T08:33:43;97554.88;;;13.39;100.00
24031;BME280;12240;51.142;22.486;2023-03-14T08:36:11;97539.91;;;13.31;100.00
24031;BME280;12240;51.142;22.486;2023-03-14T08:38:40;97501.50;;;13.26;100.00
24031;BME280;12240;51.142;22.486;2023-03-14T08:41:11;97558.53;;;13.51;100.00
24031;BME280;12240;51.142;22.486;2023-03-14T08:43:39;97554.28;;;13.68;100.00
24031;BME280;12240;51.142;22.486;2023-03-14T08:46:07;97550.22;;;13.65;100.00
24031;BME280;12240;51.142;22.486;2023-03-14T08:48:36;97550.34;;;13.77;100.00
24031;BME280;12240;51.142;22.486;2023-03-14T08:51:09;97530.44;;;13.66;100.00
24031;BME280;12240;51.142;22.486;2023-03-14T08:53:39;97528.09;;;13.45;100.00
24031;BME280;12240;51.142;22.486;2023-03-14T08:56:08;97553.47;;;13.30;100.00
24031;BME280;12240;51.142;22.486;2023-03-14T08:58:38;97545.66;;;13.35;100.00
24031;BME280;12240;51.142;22.486;2023-03-14T09:01:09;97499.78;;;13.38;100.00
24031;BME280;12240;51.142;22.486;2023-03-14T09:03:38;97502.19;;;13.46;100.00
24031;BME280;12240;51.142;22.486;2023-03-14T09:06:09;97534.56;;;13.69;100.00
24031;BME280;12240;51.142;22.486;2023-03-14T09:08:38;97526.88;;;13.72;100.00
24031;BME280;12240;51.142;22.486;2023-03-14T09:11:09;97530.94;;;13.57;100.00
24031;BME280;12240;51.142;22.486;2023-03-14T09:13:37;97535.97;;;13.71;100.00
24031;BME280;12240;51.142;22.486;2023-03-14T09:16:07;97541.53;;;13.70;100.00
24031;BME280;12240;51.142;22.486;2023-03-14T09:18:36;97505.38;;;13.61;100.00
24031;BME280;12240;51.142;22.486;2023-03-14T09:21:04;97537.47;;;13.61;100.00
24031;BME280;12240;51.142;22.486;2023-03-14T09:23:33;97534.16;;;13.65;100.00
24031;BME280;12240;51.142;22.486;2023-03-14T09:26:01;97520.09;;;13.76;100.00
24031;BME280;12240;51.142;22.486;2023-03-14T09:28:30;97502.03;;;13.72;100.00
24031;BME280;12240;51.142;22.486;2023-03-14T09:30:58;97490.31;;;13.66;100.00
24031;BME280;12240;51.142;22.486;2023-03-14T09:33:32;97517.34;;;13.83;100.00
24031;BME280;12240;51.142;22.486;2023-03-14T09:36:00;97490.38;;;13.60;100.00
24031;BME280;12240;51.142;22.486;2023-03-14T09:38:29;97461.34;;;13.63;100.00
24031;BME280;12240;51.142;22.486;2023-03-14T09:41:00;97481.41;;;13.79;100.00
24031;BME280;12240;51.142;22.486;2023-03-14T09:43:31;97537.00;;;14.26;100.00
24031;BME280;12240;51.142;22.486;2023-03-14T09:46:05;97493.75;;;14.23;100.00
24031;BME280;12240;51.142;22.486;2023-03-14T09:48:36;97496.66;;;14.21;100.00
24031;BME280;12240;51.142;22.486;2023-03-14T09:51:14;97454.94;;;14.14;100.00
24031;BME280;12240;51.142;22.486;2023-03-14T09:53:47;97512.34;;;14.42;100.00
24031;BME280;12240;51.142;22.486;2023-03-14T09:56:27;97498.94;;;14.60;100.00
24031;BME280;12240;51.142;22.486;2023-03-14T09:59:03;97491.16;;;14.77;100.00
24031;BME280;12240;51.142;22.486;2023-03-14T10:01:36;97501.34;;;14.68;100.00
24031;BME280;12240;51.142;22.486;2023-03-14T10:04:15;97492.69;;;14.48;100.00
24031;BME280;12240;51.142;22.486;2023-03-14T10:06:45;97499.41;;;14.57;100.00
24031;BME280;12240;51.142;22.486;2023-03-14T10:09:22;97517.13;;;14.76;100.00
24031;BME280;12240;51.142;22.486;2023-03-14T10:11:58;97472.69;;;14.51;100.00
24031;BME280;12240;51.142;22.486;2023-03-14T10:14:50;97500.22;;;14.76;100.00
24031;BME280;12240;51.142;22.486;2023-03-14T10:17:20;97491.00;;;14.72;100.00
24031;BME280;12240;51.142;22.486;2023-03-14T10:20:06;97474.03;;;14.60;99.25
24031;BME280;12240;51.142;22.486;2023-03-14T10:22:38;97494.25;;;14.92;99.89
24031;BME280;12240;51.142;22.486;2023-03-14T10:25:29;97447.00;;;14.79;100.00
24031;BME280;12240;51.142;22.486;2023-03-14T10:27:58;97476.38;;;14.86;100.00
24031;BME280;12240;51.142;22.486;2023-03-14T10:30:44;97469.56;;;14.72;100.00
24031;BME280;12240;51.142;22.486;2023-03-14T10:33:26;97494.00;;;15.11;100.00
24031;BME280;12240;51.142;22.486;2023-03-14T10:36:14;97480.53;;;15.00;100.00
24031;BME280;12240;51.142;22.486;2023-03-14T10:38:44;97489.72;;;15.22;100.00
24031;BME280;12240;51.142;22.486;2023-03-14T10:41:35;97484.63;;;15.50;100.00
24031;BME280;12240;51.142;22.486;2023-03-14T10:44:03;97466.81;;;15.38;100.00
24031;BME280;12240;51.142;22.486;2023-03-14T10:46:33;97475.91;;;15.37;100.00
24031;BME280;12240;51.142;22.486;2023-03-14T10:49:34;97420.63;;;14.94;98.38
24031;BME280;12240;51.142;22.486;2023-03-14T10:52:27;97430.91;;;14.97;99.11
24031;BME280;12240;51.142;22.486;2023-03-14T10:55:12;97473.19;;;14.95;99.03
24031;BME280;12240;51.142;22.486;2023-03-14T10:57:42;97467.63;;;14.79;99.45
24031;BME280;12240;51.142;22.486;2023-03-14T11:00:19;97433.44;;;14.92;100.00
24031;BME280;12240;51.142;22.486;2023-03-14T11:03:12;97422.13;;;15.20;100.00
24031;BME280;12240;51.142;22.486;2023-03-14T11:08:57;97461.41;;;15.44;99.38
24031;BME280;12240;51.142;22.486;2023-03-14T11:11:33;97454.44;;;15.25;96.65
24031;BME280;12240;51.142;22.486;2023-03-14T11:14:32;97457.53;;;15.22;95.91
24031;BME280;12240;51.142;22.486;2023-03-14T11:17:44;97472.47;;;15.18;97.70
24031;BME280;12240;51.142;22.486;2023-03-14T11:23:23;97461.44;;;15.56;97.68
24031;BME280;12240;51.142;22.486;2023-03-14T11:29:02;97404.97;;;15.09;95.86
24031;BME280;12240;51.142;22.486;2023-03-14T11:31:39;97421.44;;;15.25;96.49
24031;BME280;12240;51.142;22.486;2023-03-14T11:34:54;97449.41;;;15.58;99.77
24031;BME280;12240;51.142;22.486;2023-03-14T11:37:33;97438.06;;;15.45;98.88
24031;BME280;12240;51.142;22.486;2023-03-14T11:42:38;97450.34;;;15.52;96.41
24031;BME280;12240;51.142;22.486;2023-03-14T11:45:26;97407.28;;;15.47;97.09
24031;BME280;12240;51.142;22.486;2023-03-14T11:50:57;97419.53;;;15.55;94.98
24031;BME280;12240;51.142;22.486;2023-03-14T11:56:46;97415.00;;;15.26;96.28
24031;BME280;12240;51.142;22.486;2023-03-14T12:11:02;97410.97;;;15.87;98.26
24031;BME280;12240;51.142;22.486;2023-03-14T12:13:38;97425.66;;;15.96;98.63
24031;BME280;12240;51.142;22.486;2023-03-14T12:16:36;97395.31;;;15.84;100.00
24031;BME280;12240;51.142;22.486;2023-03-14T12:24:34;97420.88;;;16.21;93.84
24031;BME280;12240;51.142;22.486;2023-03-14T12:27:06;97402.41;;;16.25;93.25
24031;BME280;12240;51.142;22.486;2023-03-14T12:29:57;97417.34;;;16.32;95.68
24031;BME280;12240;51.142;22.486;2023-03-14T12:32:30;97406.06;;;15.96;94.73
24031;BME280;12240;51.142;22.486;2023-03-14T12:35:40;97409.44;;;15.91;94.80
24031;BME280;12240;51.142;22.486;2023-03-14T12:38:27;97372.91;;;15.56;95.04
24031;BME280;12240;51.142;22.486;2023-03-14T12:43:53;97404.66;;;15.29;96.60
24031;BME280;12240;51.142;22.486;2023-03-14T12:46:27;97403.38;;;15.32;97.25
24031;BME280;12240;51.142;22.486;2023-03-14T12:49:05;97434.72;;;15.61;98.66
24031;BME280;12240;51.142;22.486;2023-03-14T12:51:41;97394.38;;;15.26;98.39
24031;BME280;12240;51.142;22.486;2023-03-14T12:54:44;97417.56;;;15.50;99.32
24031;BME280;12240;51.142;22.486;2023-03-14T12:57:45;97407.53;;;15.57;98.59
24031;BME280;12240;51.142;22.486;2023-03-14T13:02:46;97380.03;;;15.20;100.00
24031;BME280;12240;51.142;22.486;2023-03-14T13:05:24;97429.00;;;15.28;100.00
24031;BME280;12240;51.142;22.486;2023-03-14T13:10:39;97396.53;;;14.94;100.00
24031;BME280;12240;51.142;22.486;2023-03-14T13:13:22;97309.53;;;14.01;100.00
24031;BME280;12240;51.142;22.486;2023-03-14T13:15:59;97444.47;;;14.84;100.00
24031;BME280;12240;51.142;22.486;2023-03-14T13:18:41;97451.91;;;15.12;100.00
24031;BME280;12240;51.142;22.486;2023-03-14T13:21:20;97448.81;;;15.15;100.00
24031;BME280;12240;51.142;22.486;2023-03-14T13:24:03;97437.88;;;14.98;100.00
24031;BME280;12240;51.142;22.486;2023-03-14T13:26:41;97454.75;;;14.87;100.00
24031;BME280;12240;51.142;22.486;2023-03-14T13:29:32;97454.16;;;14.67;100.00
24031;BME280;12240;51.142;22.486;2023-03-14T13:34:47;97443.16;;;14.57;100.00
24031;BME280;12240;51.142;22.486;2023-03-14T13:37:20;97409.97;;;14.40;100.00
24031;BME280;12240;51.142;22.486;2023-03-14T13:39:56;97433.59;;;14.25;100.00
24031;BME280;12240;51.142;22.486;2023-03-14T13:42:27;97453.72;;;14.34;100.00
24031;BME280;12240;51.142;22.486;2023-03-14T13:44:57;97453.59;;;14.23;100.00
24031;BME280;12240;51.142;22.486;2023-03-14T13:47:26;97454.28;;;14.18;100.00
24031;BME280;12240;51.142;22.486;2023-03-14T13:49:55;97434.31;;;13.96;100.00
24031;BME280;12240;51.142;22.486;2023-03-14T13:52:36;97467.94;;;14.10;100.00
24031;BME280;12240;51.142;22.486;2023-03-14T13:55:14;97462.47;;;13.98;100.00
24031;BME280;12240;51.142;22.486;2023-03-14T13:57:53;97456.63;;;14.08;100.00
24031;BME280;12240;51.142;22.486;2023-03-14T14:00:27;97467.97;;;14.03;100.00
24031;BME280;12240;51.142;22.486;2023-03-14T14:02:58;97440.81;;;13.82;100.00
24031;BME280;12240;51.142;22.486;2023-03-14T14:05:29;97468.28;;;13.95;100.00
24031;BME280;12240;51.142;22.486;2023-03-14T14:07:58;97479.50;;;13.86;100.00
24031;BME280;12240;51.142;22.486;2023-03-14T14:10:27;97446.22;;;13.51;100.00
24031;BME280;12240;51.142;22.486;2023-03-14T14:13:08;97484.00;;;13.61;100.00
24031;BME280;12240;51.142;22.486;2023-03-14T14:15:43;97467.53;;;13.33;100.00
24031;BME280;12240;51.142;22.486;2023-03-14T14:18:16;97462.78;;;13.35;100.00
24031;BME280;12240;51.142;22.486;2023-03-14T14:20:47;97324.44;;;12.43;100.00
24031;BME280;12240;51.142;22.486;2023-03-14T14:23:22;97396.06;;;12.84;100.00